Time;durP1;ratioP1;P1;durP2;ratioP2;P2;SDS_P1;SDS_P2;PMS_P1;PMS_P2;Temp;Humidity;BMP_temperature;BMP_pressure;BME280_temperature;BME280_humidity;BME280_pressure;Samples;Min_cycle;Max_cycle;Signal;HPM_P1;HPM_P2
2022/11/27 00:01:24;;;;;;;28.25;8.45;;;;;;;3.57;100.00;102347.06;4930059;28;20443;-76
2022/11/27 00:03:49;;;;;;;24.77;8.20;;;;;;;3.60;100.00;102349.47;4931173;29;20034;-79
2022/11/27 00:06:18;;;;;;;24.95;9.00;;;;;;;3.58;100.00;102343.59;4929806;28;20039;-78
2022/11/27 00:08:44;;;;;;;28.77;7.60;;;;;;;3.65;100.00;102337.25;4913886;29;20035;-77
2022/11/27 00:11:15;;;;;;;25.15;8.27;;;;;;;3.66;100.00;102345.78;4930804;28;20407;-76
2022/11/27 00:13:41;;;;;;;21.42;7.75;;;;;;;3.67;100.00;102345.72;4928559;29;20039;-77
2022/11/27 00:16:07;;;;;;;21.25;7.78;;;;;;;3.69;100.00;102346.50;4910410;28;20241;-76
2022/11/27 00:18:33;;;;;;;24.30;7.28;;;;;;;3.75;100.00;102341.94;4909773;28;20035;-80
2022/11/27 00:21:07;;;;;;;28.52;8.70;;;;;;;3.66;100.00;102335.53;4926305;29;20047;-77
2022/11/27 00:23:34;;;;;;;29.23;7.97;;;;;;;3.65;100.00;102339.00;4927689;28;20337;-76
2022/11/27 00:26:00;;;;;;;26.33;7.70;;;;;;;3.64;100.00;102332.22;4940304;28;20534;-79
2022/11/27 00:28:25;;;;;;;28.88;7.88;;;;;;;3.70;100.00;102335.31;4939534;28;20066;-77
2022/11/27 00:30:51;;;;;;;22.58;7.10;;;;;;;3.62;100.00;102331.47;4937712;28;20051;-76
2022/11/27 00:33:17;;;;;;;30.27;7.68;;;;;;;3.68;100.00;102326.84;4928111;28;20053;-78
2022/11/27 00:35:42;;;;;;;26.67;7.07;;;;;;;3.72;100.00;102319.00;4923436;28;20050;-76
2022/11/27 00:38:08;;;;;;;20.42;6.45;;;;;;;3.74;100.00;102324.91;4908803;29;20097;-77
2022/11/27 00:40:33;;;;;;;26.30;8.55;;;;;;;3.68;100.00;102316.59;4925089;28;20039;-81
2022/11/27 00:43:00;;;;;;;29.67;6.82;;;;;;;3.65;100.00;102310.78;4914468;29;20428;-77
2022/11/27 00:45:26;;;;;;;22.80;7.35;;;;;;;3.61;100.00;102304.94;4907329;29;20023;-78
2022/11/27 00:47:51;;;;;;;25.83;7.78;;;;;;;3.70;100.00;102308.81;4905509;29;20027;-77
2022/11/27 00:50:17;;;;;;;18.83;8.10;;;;;;;3.69;100.00;102296.88;4891378;29;20031;-78
2022/11/27 00:52:42;;;;;;;20.67;7.30;;;;;;;3.73;100.00;102295.00;4909523;29;20035;-77
2022/11/27 00:55:08;;;;;;;18.70;7.32;;;;;;;3.76;100.00;102292.31;4909960;29;20451;-78
2022/11/27 00:57:33;;;;;;;25.38;7.45;;;;;;;3.76;100.00;102300.00;4907079;29;20389;-77
2022/11/27 00:59:59;;;;;;;22.92;7.78;;;;;;;3.72;100.00;102307.00;4892640;29;20040;-77
2022/11/27 01:02:24;;;;;;;22.02;7.43;;;;;;;3.69;100.00;102300.31;4908566;29;20559;-78
2022/11/27 01:04:49;;;;;;;27.50;8.55;;;;;;;3.77;100.00;102301.63;4909483;29;20508;-77
2022/11/27 01:07:15;;;;;;;23.33;7.28;;;;;;;3.65;100.00;102300.50;4906736;29;20047;-76
2022/11/27 01:09:41;;;;;;;19.10;6.88;;;;;;;3.68;100.00;102298.63;4891285;29;20134;-80
2022/11/27 01:12:07;;;;;;;26.60;6.55;;;;;;;3.66;100.00;102303.00;4909617;29;20047;-76
2022/11/27 01:14:33;;;;;;;20.35;7.55;;;;;;;3.65;100.00;102301.34;4903743;29;20032;-76
2022/11/27 01:16:58;;;;;;;23.65;7.55;;;;;;;3.66;100.00;102303.00;4921357;29;20073;-76
2022/11/27 01:19:24;;;;;;;15.15;5.97;;;;;;;3.66;100.00;102308.13;4893025;29;20067;-77
2022/11/27 01:21:49;;;;;;;17.63;7.15;;;;;;;3.69;100.00;102304.56;4905123;29;20081;-78
2022/11/27 01:24:15;;;;;;;23.63;6.80;;;;;;;3.68;100.00;102300.38;4917177;29;20315;-79
2022/11/27 01:26:41;;;;;;;27.02;6.93;;;;;;;3.65;100.00;102298.75;4905508;29;20083;-77
2022/11/27 01:29:07;;;;;;;17.83;6.40;;;;;;;3.59;100.00;102301.63;4906756;29;20512;-77
2022/11/27 01:31:34;;;;;;;17.52;6.20;;;;;;;3.66;100.00;102303.00;4990882;23;20045;-74
2022/11/27 01:34:04;;;;;;;27.70;7.43;;;;;;;3.67;100.00;102296.13;4997753;28;20034;-74
2022/11/27 01:36:31;;;;;;;19.50;6.68;;;;;;;3.73;100.00;102297.56;4981919;28;20046;-73
2022/11/27 01:38:57;;;;;;;22.63;7.07;;;;;;;3.72;100.00;102289.06;4981659;28;20495;-74
2022/11/27 01:41:44;;;;;;;19.80;6.57;;;;;;;3.74;100.00;102281.28;4978219;28;20124;-74
2022/11/27 01:44:24;;;;;;;16.35;5.93;;;;;;;3.73;100.00;102277.03;5021203;22;20117;-78
2022/11/27 01:47:06;;;;;;;21.17;5.63;;;;;;;3.79;100.00;102274.19;4983753;28;20224;-76
2022/11/27 01:49:34;;;;;;;19.55;5.78;;;;;;;3.67;100.00;102273.03;4996976;28;20505;-76
2022/11/27 01:52:05;;;;;;;20.88;6.18;;;;;;;3.70;100.00;102276.28;4989521;28;20117;-76
2022/11/27 01:54:38;;;;;;;14.73;5.22;;;;;;;3.67;100.00;102273.03;4981991;28;20041;-76
2022/11/27 01:57:08;;;;;;;18.27;5.90;;;;;;;3.65;100.00;102283.38;4975516;28;20035;-76
2022/11/27 01:59:34;;;;;;;18.45;6.00;;;;;;;3.67;100.00;102276.47;4980525;28;20034;-76
2022/11/27 02:02:01;;;;;;;14.88;5.57;;;;;;;3.70;100.00;102276.28;4991987;28;20050;-77
2022/11/27 02:04:27;;;;;;;15.55;5.25;;;;;;;3.68;100.00;102275.53;4975153;28;20037;-78
2022/11/27 02:06:56;;;;;;;16.13;5.35;;;;;;;3.66;100.00;102277.34;4982061;28;20124;-76
2022/11/27 02:09:21;;;;;;;23.23;6.55;;;;;;;3.65;100.00;102272.28;4979549;28;20031;-77
2022/11/27 02:12:11;;;;;;;21.30;5.60;;;;;;;3.68;100.00;102267.84;4979133;28;20062;-76
2022/11/27 02:14:46;;;;;;;22.73;5.60;;;;;;;3.66;100.00;102272.22;4978404;28;20084;-76
2022/11/27 02:17:26;;;;;;;20.70;5.38;;;;;;;3.69;100.00;102258.41;4980914;28;20101;-76
2022/11/27 02:20:27;;;;;;;13.23;4.85;;;;;;;3.74;100.00;102261.56;4981349;28;20042;-77
2022/11/27 02:23:26;;;;;;;19.52;5.63;;;;;;;3.71;100.00;102261.72;4979831;28;20057;-76
2022/11/27 02:26:14;;;;;;;15.55;4.75;;;;;;;3.70;100.00;102263.47;4993566;28;20042;-75
2022/11/27 02:29:05;;;;;;;12.18;4.28;;;;;;;3.67;100.00;102255.94;4977860;28;20578;-75
2022/11/27 02:31:46;;;;;;;20.35;5.43;;;;;;;3.67;100.00;102235.41;4995947;28;20046;-76
2022/11/27 02:34:36;;;;;;;17.90;4.97;;;;;;;3.64;100.00;102230.41;4979319;28;20856;-76
2022/11/27 02:37:17;;;;;;;19.70;5.28;;;;;;;3.67;100.00;102220.00;4979151;28;20460;-76
2022/11/27 02:39:59;;;;;;;17.08;5.13;;;;;;;3.61;100.00;102206.66;4981313;28;20035;-76
2022/11/27 02:42:28;;;;;;;22.55;4.93;;;;;;;3.67;100.00;102199.50;5000201;28;20051;-75
2022/11/27 02:45:06;;;;;;;14.95;4.05;;;;;;;3.61;100.00;102198.94;5001042;28;20514;-76
2022/11/27 02:47:32;;;;;;;12.82;4.57;;;;;;;3.62;100.00;102193.75;4980811;28;20058;-76
2022/11/27 02:49:59;;;;;;;17.52;6.20;;;;;;;3.70;100.00;102198.50;4984881;28;20034;-77
2022/11/27 02:52:26;;;;;;;17.88;4.22;;;;;;;3.61;100.00;102199.78;4999036;28;20145;-75
2022/11/27 02:54:56;;;;;;;16.35;5.68;;;;;;;3.54;100.00;102195.84;4985442;28;20038;-76
2022/11/27 02:57:24;;;;;;;18.85;5.63;;;;;;;3.63;100.00;102192.00;4997539;28;20050;-76
2022/11/27 02:59:53;;;;;;;22.77;4.88;;;;;;;3.62;100.00;102192.94;4983436;28;20088;-77
2022/11/27 03:02:25;;;;;;;18.83;5.30;;;;;;;3.64;100.00;102181.69;4986422;28;20042;-76
2022/11/27 03:04:55;;;;;;;19.40;4.95;;;;;;;3.56;100.00;102188.94;4983867;28;20088;-77
2022/11/27 03:07:41;;;;;;;19.75;5.20;;;;;;;3.61;100.00;102178.44;4984393;28;20104;-78
2022/11/27 03:10:18;;;;;;;17.23;5.45;;;;;;;3.69;100.00;102171.16;4999738;28;20417;-77
2022/11/27 03:12:45;;;;;;;16.02;5.72;;;;;;;3.68;100.00;102175.47;4968675;28;20158;-76
2022/11/27 03:15:11;;;;;;;10.55;4.05;;;;;;;3.68;100.00;102178.03;4985639;28;20573;-75
2022/11/27 03:18:12;;;;;;;19.88;5.50;;;;;;;3.63;100.00;102172.31;4968535;28;20033;-76
2022/11/27 03:20:42;;;;;;;15.57;5.25;;;;;;;3.69;100.00;102171.16;4981847;28;20085;-77
2022/11/27 03:23:07;;;;;;;15.93;5.47;;;;;;;3.70;100.00;102165.97;4985176;28;20393;-77
2022/11/27 03:25:33;;;;;;;22.65;5.43;;;;;;;3.68;100.00;102169.53;4983250;28;20047;-77
2022/11/27 03:28:05;;;;;;;17.52;5.55;;;;;;;3.73;100.00;102167.56;4985888;28;20414;-76
2022/11/27 03:30:31;;;;;;;20.40;5.30;;;;;;;3.67;100.00;102172.97;4974669;28;20134;-78
2022/11/27 03:32:56;;;;;;;11.10;5.00;;;;;;;3.75;100.00;102155.47;4984410;28;20112;-76
2022/11/27 03:35:24;;;;;;;22.38;5.78;;;;;;;3.74;100.00;102163.25;4979185;28;20462;-77
2022/11/27 03:37:51;;;;;;;21.90;5.78;;;;;;;3.72;100.00;102147.09;4967124;28;20042;-80
2022/11/27 03:40:17;;;;;;;22.85;6.55;;;;;;;3.72;100.00;102145.38;4983125;28;20034;-76
2022/11/27 03:43:21;;;;;;;20.90;6.38;;;;;;;3.73;100.00;102141.91;4983736;28;20058;-76
2022/11/27 03:46:03;;;;;;;18.17;5.72;;;;;;;3.78;100.00;102145.03;4924208;29;20230;-76
2022/11/27 03:49:06;;;;;;;21.45;6.80;;;;;;;3.82;100.00;102153.41;4972732;28;20050;-75
2022/11/27 03:51:48;;;;;;;25.20;7.18;;;;;;;3.76;100.00;102157.13;4981289;28;20038;-75
2022/11/27 03:54:34;;;;;;;18.85;6.78;;;;;;;3.80;100.00;102143.22;4983102;28;20030;-77
2022/11/27 03:57:40;;;;;;;17.90;6.75;;;;;;;3.83;100.00;102127.69;4998514;28;20061;-78
2022/11/27 04:00:07;;;;;;;14.90;6.22;;;;;;;3.79;100.00;102133.06;4973702;28;20047;-74
2022/11/27 04:02:46;;;;;;;16.70;6.30;;;;;;;3.79;100.00;102136.44;4981670;28;20050;-75
2022/11/27 04:05:12;;;;;;;23.33;8.00;;;;;;;3.80;100.00;102132.97;4981724;28;20037;-76
2022/11/27 04:07:38;;;;;;;25.60;7.82;;;;;;;3.83;100.00;102126.84;4983834;28;20121;-75
2022/11/27 04:10:04;;;;;;;25.60;7.57;;;;;;;3.78;100.00;102136.53;4983050;28;20113;-77
2022/11/27 04:12:30;;;;;;;27.23;8.82;;;;;;;3.85;100.00;102131.00;4996944;28;20387;-76
2022/11/27 04:14:55;;;;;;;22.98;7.90;;;;;;;3.88;100.00;102120.56;4985971;28;20065;-78
2022/11/27 04:17:21;;;;;;;22.95;7.50;;;;;;;3.90;100.00;102120.50;4984267;28;20396;-76
2022/11/27 04:19:46;;;;;;;25.50;8.27;;;;;;;3.84;100.00;102124.22;4984107;28;20398;-75
2022/11/27 04:22:12;;;;;;;22.58;8.10;;;;;;;3.93;100.00;102117.75;4981950;28;20054;-77
2022/11/27 04:24:37;;;;;;;25.27;10.90;;;;;;;3.92;100.00;102120.41;4965555;28;20030;-77
2022/11/27 04:27:02;;;;;;;33.13;9.77;;;;;;;3.94;100.00;102104.03;4982549;28;20061;-75
2022/11/27 04:29:28;;;;;;;28.90;8.90;;;;;;;3.88;100.00;102100.06;4979506;28;20030;-75
2022/11/27 04:31:53;;;;;;;24.60;9.68;;;;;;;3.87;100.00;102100.94;4983062;28;20045;-76
2022/11/27 04:34:19;;;;;;;30.98;10.30;;;;;;;3.93;100.00;102097.22;4996145;28;20034;-78
2022/11/27 04:36:45;;;;;;;28.25;10.30;;;;;;;3.94;100.00;102092.91;4982077;28;20055;-75
2022/11/27 04:39:12;;;;;;;29.77;11.15;;;;;;;3.88;100.00;102096.63;4996160;28;20326;-78
2022/11/27 04:41:37;;;;;;;34.92;11.32;;;;;;;3.89;100.00;102098.31;4984783;28;20121;-77
2022/11/27 04:44:03;;;;;;;25.70;10.57;;;;;;;3.89;100.00;102099.13;4998502;28;21464;-78
2022/11/27 04:46:28;;;;;;;29.70;10.85;;;;;;;3.93;100.00;102102.34;4982999;28;20046;-76
2022/11/27 04:48:54;;;;;;;27.52;9.90;;;;;;;3.98;100.00;102108.09;4984108;28;20061;-75
2022/11/27 04:51:19;;;;;;;26.35;8.93;;;;;;;3.96;100.00;102104.78;4983383;28;20053;-75
2022/11/27 04:53:45;;;;;;;29.60;9.13;;;;;;;3.89;100.00;102099.13;4982408;28;20035;-76
2022/11/27 04:56:10;;;;;;;28.35;11.55;;;;;;;3.85;100.00;102101.94;4963864;28;20210;-76
2022/11/27 04:58:36;;;;;;;27.45;10.13;;;;;;;3.96;100.00;102094.50;4983553;28;20034;-77
2022/11/27 05:01:01;;;;;;;29.42;10.60;;;;;;;3.90;100.00;102092.28;4995512;28;20050;-77
2022/11/27 05:03:27;;;;;;;28.63;9.20;;;;;;;3.89;100.00;102098.31;4986608;28;20034;-76
2022/11/27 05:05:56;;;;;;;29.98;12.00;;;;;;;3.92;100.00;102090.44;4981187;28;20104;-77
2022/11/27 05:08:23;;;;;;;24.42;9.40;;;;;;;3.83;100.00;102088.38;4984097;28;20627;-76
2022/11/27 05:11:18;;;;;;;31.92;10.43;;;;;;;3.88;100.00;102094.91;4982310;28;20450;-75
2022/11/27 05:13:44;;;;;;;24.33;8.95;;;;;;;3.87;100.00;102082.97;4969509;28;20058;-76
2022/11/27 05:16:09;;;;;;;25.88;9.85;;;;;;;3.84;100.00;102077.19;4967948;28;20125;-76
2022/11/27 05:18:35;;;;;;;29.10;10.18;;;;;;;3.95;100.00;102084.31;5000099;28;20041;-79
2022/11/27 05:21:03;;;;;;;31.40;10.38;;;;;;;3.96;100.00;102081.69;4979700;28;20046;-75
2022/11/27 05:23:29;;;;;;;31.40;10.55;;;;;;;3.87;100.00;102077.03;4978874;28;20047;-76
2022/11/27 05:25:55;;;;;;;29.90;9.25;;;;;;;3.92;100.00;102067.34;4981103;28;20074;-77
2022/11/27 05:28:21;;;;;;;26.98;9.98;;;;;;;3.89;100.00;102068.31;5000496;28;20109;-75
2022/11/27 05:30:47;;;;;;;30.90;10.88;;;;;;;3.95;100.00;102080.00;4980577;28;20566;-77
2022/11/27 05:33:13;;;;;;;28.73;9.23;;;;;;;3.87;100.00;102067.59;4965817;28;20035;-76
2022/11/27 05:35:39;;;;;;;27.90;9.98;;;;;;;3.90;100.00;102066.59;4979587;28;20153;-75
2022/11/27 05:38:05;;;;;;;22.73;9.10;;;;;;;3.89;100.00;102060.63;4980818;28;20046;-75
2022/11/27 05:40:30;;;;;;;30.85;8.57;;;;;;;3.87;100.00;102057.31;4978112;28;20086;-76
2022/11/27 05:42:56;;;;;;;27.98;9.52;;;;;;;3.88;100.00;102053.84;4996615;28;20036;-76
2022/11/27 05:45:21;;;;;;;21.58;9.57;;;;;;;3.92;100.00;102056.22;4979048;28;20030;-74
2022/11/27 05:47:46;;;;;;;26.73;12.23;;;;;;;3.90;100.00;102053.78;4998186;28;20499;-75
2022/11/27 05:50:12;;;;;;;23.98;8.55;;;;;;;3.79;100.00;102054.34;4978864;28;20057;-75
2022/11/27 05:52:37;;;;;;;27.92;10.30;;;;;;;3.84;100.00;102046.38;4982370;28;20041;-75
2022/11/27 05:55:03;;;;;;;32.67;9.80;;;;;;;3.92;100.00;102030.56;4980890;28;20030;-75
2022/11/27 05:57:29;;;;;;;23.08;8.82;;;;;;;3.95;100.00;102028.66;4979130;28;20387;-77
2022/11/27 05:59:56;;;;;;;24.52;8.75;;;;;;;3.87;100.00;102033.41;4982156;28;20053;-75
2022/11/27 06:02:22;;;;;;;28.10;10.50;;;;;;;3.85;100.00;102030.09;4979463;28;20054;-76
2022/11/27 06:04:48;;;;;;;33.40;10.13;;;;;;;3.82;100.00;102027.69;4979695;28;20506;-74
2022/11/27 06:07:13;;;;;;;26.60;9.35;;;;;;;3.91;100.00;102027.19;4981426;28;20061;-77
2022/11/27 06:09:39;;;;;;;24.83;9.15;;;;;;;3.94;100.00;102028.75;4998172;28;20042;-76
2022/11/27 06:12:04;;;;;;;24.33;9.60;;;;;;;3.94;100.00;102029.59;4997632;28;20046;-77
2022/11/27 06:14:30;;;;;;;26.63;9.85;;;;;;;3.82;100.00;102033.63;4963834;28;20038;-75
2022/11/27 06:16:56;;;;;;;28.35;9.13;;;;;;;3.88;100.00;102033.31;4979111;28;20038;-76
2022/11/27 06:19:22;;;;;;;24.95;8.70;;;;;;;3.89;100.00;102023.88;4968744;28;20065;-77
2022/11/27 06:21:47;;;;;;;29.10;10.43;;;;;;;3.87;100.00;102034.22;4971283;28;20053;-75
2022/11/27 06:24:12;;;;;;;24.88;9.60;;;;;;;3.90;100.00;102028.13;4985224;28;20045;-74
2022/11/27 06:26:38;;;;;;;24.60;9.30;;;;;;;3.90;100.00;102022.97;4986741;28;20046;-75
2022/11/27 06:29:03;;;;;;;22.98;9.60;;;;;;;3.88;100.00;102009.38;4983662;28;20494;-76
2022/11/27 06:31:31;;;;;;;26.63;9.85;;;;;;;3.90;100.00;101989.63;4967433;28;20038;-75
2022/11/27 06:33:57;;;;;;;25.38;9.55;;;;;;;3.87;100.00;101975.19;4997694;28;20034;-78
2022/11/27 06:36:27;;;;;;;24.33;10.02;;;;;;;3.83;100.00;101983.16;4978918;28;20054;-77
2022/11/27 06:38:52;;;;;;;31.83;10.02;;;;;;;3.87;100.00;101980.31;4999223;28;20061;-77
2022/11/27 06:41:20;;;;;;;24.58;10.27;;;;;;;3.80;100.00;101973.88;4980810;28;20487;-76
2022/11/27 06:43:46;;;;;;;27.98;9.35;;;;;;;3.73;100.00;101964.88;4984317;28;20038;-77
2022/11/27 06:46:14;;;;;;;32.75;10.40;;;;;;;3.68;100.00;101972.81;4986752;28;20045;-76
2022/11/27 06:48:41;;;;;;;28.30;9.23;;;;;;;3.83;100.00;101965.19;4982987;28;20046;-78
2022/11/27 06:51:07;;;;;;;23.25;8.98;;;;;;;3.86;100.00;101967.56;4964810;28;20388;-77
2022/11/27 06:53:35;;;;;;;22.95;8.98;;;;;;;3.85;100.00;101971.06;4985238;28;20041;-75
2022/11/27 06:56:12;;;;;;;20.95;8.82;;;;;;;3.80;100.00;101970.47;4984173;28;20479;-75
2022/11/27 06:58:38;;;;;;;24.55;8.18;;;;;;;3.80;100.00;101971.31;4982883;28;20022;-74
2022/11/27 07:01:12;;;;;;;20.33;8.90;;;;;;;3.89;100.00;101972.56;4981514;28;20494;-75
2022/11/27 07:03:37;;;;;;;22.70;8.00;;;;;;;3.93;100.00;101962.94;4969241;28;20034;-74
2022/11/27 07:06:05;;;;;;;23.52;8.73;;;;;;;3.91;100.00;101950.19;4981461;28;20944;-75
2022/11/27 07:08:31;;;;;;;20.35;8.50;;;;;;;4.00;100.00;101948.88;4986197;28;20540;-75
2022/11/27 07:11:05;;;;;;;20.67;8.32;;;;;;;3.95;100.00;101953.41;4997852;28;20046;-74
2022/11/27 07:13:31;;;;;;;23.42;8.35;;;;;;;3.98;100.00;101956.66;4997605;28;20046;-75
2022/11/27 07:16:06;;;;;;;17.35;8.25;;;;;;;4.04;100.00;101958.88;4984224;28;20061;-76
2022/11/27 07:18:37;;;;;;;19.52;7.43;;;;;;;4.04;100.00;101952.91;4982701;28;20038;-77
2022/11/27 07:21:03;;;;;;;21.63;8.35;;;;;;;4.02;100.00;101955.56;4978645;28;20050;-74
2022/11/27 07:23:28;;;;;;;19.45;8.07;;;;;;;4.00;100.00;101942.00;4981785;28;20116;-76
2022/11/27 07:25:54;;;;;;;21.73;8.13;;;;;;;4.04;100.00;101946.03;4977931;28;20061;-78
2022/11/27 07:28:19;;;;;;;17.55;6.72;;;;;;;4.10;100.00;101950.00;4987440;28;20041;-76
2022/11/27 07:30:44;;;;;;;19.48;7.05;;;;;;;4.07;100.00;101947.63;4980055;28;20102;-76
2022/11/27 07:33:10;;;;;;;21.58;7.53;;;;;;;4.02;100.00;101947.88;4983351;28;20030;-76
2022/11/27 07:35:35;;;;;;;21.95;7.70;;;;;;;4.10;100.00;101944.88;4984125;28;20046;-75
2022/11/27 07:38:01;;;;;;;18.83;8.35;;;;;;;4.09;100.00;101938.09;4987134;28;20044;-76
2022/11/27 07:40:26;;;;;;;20.65;7.25;;;;;;;4.13;100.00;101939.56;4979903;28;20434;-76
2022/11/27 07:42:52;;;;;;;18.92;7.22;;;;;;;4.12;100.00;101931.94;4996993;28;20481;-75
2022/11/27 07:45:17;;;;;;;17.23;7.43;;;;;;;4.12;100.00;101931.94;5017706;22;20046;-75
2022/11/27 07:47:42;;;;;;;16.48;7.07;;;;;;;4.21;100.00;101939.97;4996220;28;20680;-76
2022/11/27 07:50:08;;;;;;;18.45;7.72;;;;;;;4.20;100.00;101934.91;4967896;28;20053;-75
2022/11/27 07:52:35;;;;;;;17.60;7.70;;;;;;;4.19;100.00;101938.41;5001849;28;20117;-76
2022/11/27 07:55:00;;;;;;;21.77;7.72;;;;;;;4.28;100.00;101943.00;4969233;28;20103;-75
2022/11/27 07:57:27;;;;;;;20.25;8.18;;;;;;;4.21;100.00;101963.06;5000278;28;20313;-75
2022/11/27 07:59:53;;;;;;;20.52;7.68;;;;;;;4.33;99.94;101948.69;4995499;28;20504;-75
2022/11/27 08:02:18;;;;;;;17.83;7.55;;;;;;;4.44;99.80;101950.66;4982812;28;20041;-74
2022/11/27 08:04:44;;;;;;;21.30;7.35;;;;;;;4.48;99.16;101945.28;4998050;28;20088;-75
2022/11/27 08:07:09;;;;;;;17.63;7.07;;;;;;;4.54;98.94;101945.81;4984647;28;20058;-75
2022/11/27 08:09:36;;;;;;;25.45;7.72;;;;;;;4.51;99.45;101936.56;4985009;28;20034;-75
2022/11/27 08:12:02;;;;;;;16.73;6.20;;;;;;;4.62;98.37;101936.75;4993035;28;20137;-75
2022/11/27 08:14:27;;;;;;;11.90;5.78;;;;;;;4.63;97.71;101938.44;4985460;28;20030;-75
2022/11/27 08:16:53;;;;;;;14.07;6.95;;;;;;;4.70;97.85;101938.88;4998553;28;20038;-77
2022/11/27 08:19:18;;;;;;;13.40;6.18;;;;;;;4.67;98.19;101939.03;4998514;28;20108;-76
2022/11/27 08:21:44;;;;;;;17.63;7.63;;;;;;;4.69;98.10;101937.25;4983835;28;20226;-75
2022/11/27 08:24:09;;;;;;;20.73;6.43;;;;;;;4.66;97.88;101938.22;4996692;28;20474;-75
2022/11/27 08:26:35;;;;;;;15.27;5.63;;;;;;;4.74;97.58;101940.34;4999402;28;20045;-75
2022/11/27 08:29:00;;;;;;;20.25;7.38;;;;;;;4.67;98.04;101931.34;4966685;28;20535;-75
2022/11/27 08:31:25;;;;;;;16.63;7.13;;;;;;;4.82;97.54;101930.47;4982124;28;20064;-76
2022/11/27 08:33:51;;;;;;;17.08;5.63;;;;;;;4.80;96.98;101922.00;4986685;28;20042;-75
2022/11/27 08:36:16;;;;;;;12.95;5.38;;;;;;;4.85;97.30;101919.97;4998741;28;20194;-75
2022/11/27 08:38:42;;;;;;;14.30;6.05;;;;;;;4.93;96.84;101921.28;5000957;28;20060;-75
2022/11/27 08:41:08;;;;;;;11.02;4.38;;;;;;;4.90;96.91;101911.16;4985940;28;20298;-76
2022/11/27 08:43:34;;;;;;;14.52;6.18;;;;;;;4.88;97.10;101901.00;4999979;28;20033;-76
2022/11/27 08:46:05;;;;;;;12.15;5.68;;;;;;;4.95;96.48;101898.88;4996751;28;20097;-75
2022/11/27 08:48:31;;;;;;;11.48;5.55;;;;;;;5.01;96.09;101901.91;4966372;28;20430;-75
2022/11/27 08:50:56;;;;;;;17.23;6.05;;;;;;;5.03;96.62;101900.06;4995142;28;20101;-76
2022/11/27 08:53:22;;;;;;;8.13;5.28;;;;;;;5.04;95.83;101894.00;5000212;28;20067;-76
2022/11/27 08:55:47;;;;;;;12.45;5.35;;;;;;;5.00;96.32;101895.09;4997314;28;20366;-77
2022/11/27 08:58:13;;;;;;;14.05;5.32;;;;;;;5.06;96.32;101884.44;4997750;28;20049;-75
2022/11/27 09:00:38;;;;;;;13.45;5.90;;;;;;;5.11;96.56;101888.50;4999391;28;20044;-76
2022/11/27 09:03:04;;;;;;;12.82;5.20;;;;;;;5.18;96.09;101885.44;4996855;28;20096;-76
2022/11/27 09:05:31;;;;;;;12.45;4.72;;;;;;;5.23;95.97;101891.13;4966762;28;20065;-75
2022/11/27 09:07:58;;;;;;;9.48;5.07;;;;;;;5.25;95.59;101883.31;4983065;28;20059;-76
2022/11/27 09:10:24;;;;;;;12.23;6.32;;;;;;;5.22;95.37;101889.47;4980090;28;20534;-75
2022/11/27 09:12:50;;;;;;;11.85;5.35;;;;;;;5.36;95.02;101883.47;4995717;28;20556;-76
2022/11/27 09:15:17;;;;;;;13.43;5.60;;;;;;;5.39;95.12;101883.28;4965622;28;20042;-75
2022/11/27 09:17:42;;;;;;;12.57;6.07;;;;;;;5.45;94.28;101875.19;5003722;28;20038;-75
2022/11/27 09:20:09;;;;;;;13.18;4.95;;;;;;;5.44;94.08;101888.97;4986139;28;20033;-75
2022/11/27 09:22:35;;;;;;;12.80;4.70;;;;;;;5.37;94.67;101879.16;4989129;28;20117;-76
2022/11/27 09:25:00;;;;;;;11.07;4.93;;;;;;;5.44;94.20;101888.13;4971574;28;20478;-75
2022/11/27 09:27:26;;;;;;;12.07;5.13;;;;;;;5.40;94.25;101876.38;4983523;28;20494;-76
2022/11/27 09:29:51;;;;;;;11.93;5.18;;;;;;;5.47;94.50;101869.94;4972458;28;20040;-75
2022/11/27 09:32:17;;;;;;;15.45;4.93;;;;;;;5.57;93.88;101868.44;4994412;28;20499;-75
2022/11/27 09:34:42;;;;;;;14.18;4.82;;;;;;;5.52;93.81;101872.22;4986695;28;20038;-75
2022/11/27 09:37:08;;;;;;;8.85;5.18;;;;;;;5.55;93.10;101864.31;4999729;28;20049;-75
2022/11/27 09:39:34;;;;;;;16.08;5.68;;;;;;;5.52;94.40;101865.34;4981752;28;20042;-76
2022/11/27 09:42:02;;;;;;;9.82;5.07;;;;;;;5.55;94.82;101867.72;4979609;28;21408;-75
2022/11/27 09:44:45;;;;;;;15.68;5.15;;;;;;;5.60;94.68;101860.53;4999510;28;20040;-76
2022/11/27 09:47:15;;;;;;;;;;;;;;;5.59;94.55;101850.31;5000276;28;20490;-76
2022/11/27 09:50:04;;;;;;;14.77;5.28;;;;;;;5.66;94.30;101851.59;5000498;28;19920;-76
2022/11/27 09:52:36;;;;;;;14.82;5.72;;;;;;;5.66;95.42;101851.59;4984373;28;20034;-75
2022/11/27 09:55:12;;;;;;;11.70;5.88;;;;;;;5.71;96.02;101848.72;5000133;28;20034;-75
2022/11/27 09:57:40;;;;;;;13.68;5.38;;;;;;;5.63;96.77;101849.19;4985160;28;20084;-75
2022/11/27 10:00:16;;;;;;;12.48;5.72;;;;;;;5.71;95.95;101846.97;4984172;28;20040;-75
2022/11/27 10:02:43;;;;;;;13.15;6.57;;;;;;;5.73;95.78;101839.16;4984389;28;20686;-75
2022/11/27 10:05:16;;;;;;;11.32;5.32;;;;;;;5.69;96.11;101835.97;4985157;28;20044;-77
2022/11/27 10:08:02;;;;;;;;;;;;;;;5.61;97.58;101839.03;4983593;28;20394;-76
2022/11/27 10:10:40;;;;;;;10.95;5.68;;;;;;;5.86;96.94;101829.72;4953992;28;19917;-76
2022/11/27 10:13:46;;;;;;;15.65;7.53;;;;;;;5.77;96.33;101827.75;4990578;28;20022;-77
2022/11/27 10:16:29;;;;;;;11.88;5.60;;;;;;;5.83;96.80;101820.44;4996668;28;20498;-75
2022/11/27 10:19:02;;;;;;;15.95;6.40;;;;;;;5.77;96.57;101820.03;4985484;28;20156;-75
2022/11/27 10:21:34;;;;;;;14.00;5.80;;;;;;;5.83;96.74;101797.25;4998087;28;20049;-76
2022/11/27 10:24:22;;;;;;;13.77;5.95;;;;;;;5.84;96.25;101791.22;4986014;28;20043;-76
2022/11/27 10:26:51;;;;;;;14.73;5.95;;;;;;;5.83;96.42;101792.13;4981876;28;20393;-76
2022/11/27 10:29:37;;;;;;;13.02;5.53;;;;;;;5.85;96.54;101781.72;4982410;28;20128;-75
2022/11/27 10:32:13;;;;;;;15.48;6.32;;;;;;;5.83;97.43;101770.72;4994745;28;20137;-76
2022/11/27 10:34:43;;;;;;;24.80;6.57;;;;;;;5.80;97.23;101771.75;4982374;28;20070;-76
2022/11/27 10:37:14;;;;;;;10.45;5.22;;;;;;;5.82;97.32;101748.44;4964704;28;20057;-75
2022/11/27 10:39:47;;;;;;;14.18;6.00;;;;;;;5.83;97.72;101750.13;4984378;28;20065;-76
2022/11/27 10:42:30;;;;;;;19.83;6.93;;;;;;;5.82;96.81;101759.59;4998805;28;20046;-77
2022/11/27 10:45:23;;;;;;;13.20;5.57;;;;;;;5.83;96.78;101768.13;5001764;28;20088;-75
2022/11/27 10:47:49;;;;;;;15.82;5.60;;;;;;;5.91;96.15;101767.63;5000762;28;20046;-76
2022/11/27 10:50:17;;;;;;;17.02;7.05;;;;;;;5.94;96.48;101778.53;4962541;28;20033;-76
2022/11/27 10:52:54;;;;;;;12.70;5.45;;;;;;;6.01;95.80;101763.56;4983734;28;20377;-76
2022/11/27 10:56:04;;;;;;;14.48;5.90;;;;;;;6.18;95.80;101762.44;4968724;28;20119;-76
2022/11/27 10:58:53;;;;;;;18.67;6.35;;;;;;;6.21;94.99;101746.75;4974968;28;20550;-75
2022/11/27 11:01:20;;;;;;;13.57;6.07;;;;;;;6.22;93.92;101731.19;4997475;28;20562;-76
2022/11/27 11:03:46;;;;;;;10.65;5.05;;;;;;;6.25;92.87;101727.56;4999326;28;20033;-75
2022/11/27 11:06:19;;;;;;;13.23;5.07;;;;;;;6.24;92.99;101731.91;4967891;28;20232;-76
2022/11/27 11:08:44;;;;;;;11.38;5.03;;;;;;;6.30;92.97;101732.44;4978313;28;20041;-76
2022/11/27 11:11:10;;;;;;;15.05;6.38;;;;;;;6.34;92.19;101726.94;4985614;28;20108;-77
2022/11/27 11:13:38;;;;;;;18.40;5.50;;;;;;;6.33;92.36;101720.16;4984844;28;20067;-76
2022/11/27 11:16:06;;;;;;;14.27;5.22;;;;;;;6.43;92.94;101710.84;4985327;28;20054;-77
2022/11/27 11:18:41;;;;;;;11.82;5.20;;;;;;;6.48;92.01;101707.13;5006832;28;20061;-77
2022/11/27 11:21:25;;;;;;;15.05;5.22;;;;;;;6.50;90.96;101706.09;4985856;28;20038;-76
2022/11/27 11:24:03;;;;;;;15.77;6.30;;;;;;;6.47;92.10;101695.19;4990783;28;20133;-77
2022/11/27 11:26:48;;;;;;;15.00;6.00;;;;;;;6.48;91.74;101684.78;4989035;28;20494;-76
2022/11/27 11:29:39;;;;;;;11.02;5.80;;;;;;;6.42;92.77;101687.75;5000796;28;20033;-76
2022/11/27 11:32:20;;;;;;;14.23;6.20;;;;;;;6.60;92.19;101676.16;4971061;28;20041;-78